Hovedside
METAR-TAF:

METAR-TAF

Lufthavner :

Røros, Norge

Røros lufthavn

breddegrad: 62-35N, lengdegrad: 011-21E, høyde over havet: 626 m

Gjeldene værobservasjon

Denne rapporten ble laget for 22 minutter siden, klokken 05:50 UTC
Vind 10 kt fra Sør-sørvest, skiftende mellom Sør og Vest-sørvest
Temperatur -6°C
Luftfuktighet 79%
Trykk 1019 hPa
Sikt: 2000 m
lett snø

METAR: ENRO 240550Z 21010KT 180V240 2000 -SN VV012 M06/M09 Q1019

Tid: 07:12 (06:12 UTC)

Varsel

Denne rapporten ble laget for 1 time og 12 minutter siden, klokken 05:00 UTC
Varsel gyldig fra 24. klokken 06 UTC til 24. klokken 15 UTC
Vind 8 kt fra Sørvest
Sikt 10 km eller mer
Spredte skyer i en høyde av 2000 ft
Brutte skyer i en høyde av 4000 ft
lett snø
Midlertidig
fra 24. klokken 06 UTC til 24. klokken 15 UTC
Sikt: 1500 m
i en høyde av 900 ft
snø

TAF: ENRO 240500Z 2406/2415 22008KT 9999 -SN SCT020 BKN040 TEMPO 2406/2415 1500 SN VV009

Værobservasjoner og værvarsel for over 4000 flyplasser (METAR- og TAF-rapporter).

Tilgjengelige stasjoner er representert av de røde og gule prikkene på kartet.

Hold musepekeren over prikken for å se navnet på stasjonen.

Klikk så for å se værobservasjoner og -varsler.

For å forandre kartet kan du klikke på den grønne knappen med svart kryss for å zoome inn, på den grønne knappen med strek for å zoome ut, eller på de grønne pilene for å se tilstøtende kart.


METAR-TAF: